Time;durP1;ratioP1;P1;durP2;ratioP2;P2;SDS_P1;SDS_P2;PMS_P1;PMS_P2;Temp;Humidity;BMP_temperature;BMP_pressure;BME280_temperature;BME280_humidity;BME280_pressure;Samples;Min_cycle;Max_cycle;Signal;HPM_P1;HPM_P2
2021/04/26 00:01:05;;;;;;;6.50;2.07;;;4.90;99.90;;;;;;5057221;28;20242;-78
2021/04/26 00:03:51;;;;;;;6.83;2.17;;;4.80;99.90;;;;;;5059775;28;20708;-78
2021/04/26 00:06:35;;;;;;;5.37;2.30;;;4.70;99.90;;;;;;5046217;28;20568;-78
2021/04/26 00:09:20;;;;;;;9.27;2.70;;;4.70;99.90;;;;;;5042493;28;20640;-78
2021/04/26 00:12:05;;;;;;;6.93;2.83;;;4.60;99.90;;;;;;5061703;28;20236;-78
2021/04/26 00:14:51;;;;;;;7.13;2.20;;;4.60;99.90;;;;;;5061449;28;20207;-79
2021/04/26 00:17:36;;;;;;;8.50;2.60;;;4.60;99.90;;;;;;5057195;28;20203;-80
2021/04/26 00:20:27;;;;;;;8.17;2.30;;;4.50;99.90;;;;;;5058502;28;20245;-79
2021/04/26 00:23:12;;;;;;;8.57;2.17;;;4.50;99.90;;;;;;5059541;28;20630;-78
2021/04/26 00:25:56;;;;;;;5.10;2.03;;;4.40;99.90;;;;;;5056361;28;20249;-79
2021/04/26 00:28:42;;;;;;;4.50;1.97;;;4.40;99.90;;;;;;5056116;28;20240;-77
2021/04/26 00:31:26;;;;;;;8.33;2.60;;;4.40;99.90;;;;;;5051744;28;20738;-79
2021/04/26 00:34:11;;;;;;;8.70;2.60;;;4.30;99.90;;;;;;5045876;28;20258;-78
2021/04/26 00:36:57;;;;;;;8.60;2.50;;;4.30;99.90;;;;;;5052835;28;20227;-78
2021/04/26 00:39:41;;;;;;;5.77;2.27;;;4.20;99.90;;;;;;5056212;28;20250;-77
2021/04/26 00:42:26;;;;;;;7.03;2.23;;;4.20;99.90;;;;;;5036972;28;20208;-77
2021/04/26 00:45:14;;;;;;;4.03;2.00;;;4.10;99.90;;;;;;5053250;28;20225;-77
2021/04/26 00:47:58;;;;;;;4.47;2.20;;;4.10;99.90;;;;;;5057099;28;20218;-77
2021/04/26 00:50:43;;;;;;;10.27;2.80;;;4.00;99.90;;;;;;5044496;28;20684;-78
2021/04/26 00:53:30;;;;;;;5.33;2.10;;;4.00;99.90;;;;;;5055327;28;20788;-79
2021/04/26 00:56:14;;;;;;;8.63;2.73;;;3.90;99.90;;;;;;5045405;28;20268;-79
2021/04/26 00:59:00;;;;;;;5.40;2.10;;;3.90;99.90;;;;;;5056340;28;20276;-78
2021/04/26 01:01:45;;;;;;;3.53;2.33;;;3.80;99.90;;;;;;5056671;28;20206;-79
2021/04/26 01:04:31;;;;;;;5.20;2.17;;;3.80;99.90;;;;;;5050661;28;20282;-79
2021/04/26 01:07:16;;;;;;;6.87;2.60;;;3.70;99.90;;;;;;5043368;28;20223;-78
2021/04/26 01:10:03;;;;;;;5.93;2.20;;;3.70;99.90;;;;;;5040794;28;20694;-78
2021/04/26 01:13:03;;;;;;;6.00;2.70;;;3.70;99.90;;;;;;5046889;28;20761;-78
2021/04/26 01:15:55;;;;;;;6.63;2.40;;;3.60;99.90;;;;;;5055072;28;20218;-78
2021/04/26 01:18:47;;;;;;;4.80;2.10;;;3.50;99.90;;;;;;5045055;28;20237;-78
2021/04/26 01:22:05;;;;;;;7.23;2.30;;;3.50;99.90;;;;;;5045800;28;20617;-78
2021/04/26 01:24:56;;;;;;;5.10;2.20;;;3.50;99.90;;;;;;5056159;28;20214;-78
2021/04/26 01:28:15;;;;;;;6.97;2.20;;;3.50;99.90;;;;;;5051644;28;20689;-78
2021/04/26 01:31:09;;;;;;;11.47;2.40;;;3.40;99.90;;;;;;5052663;28;20223;-76
2021/04/26 01:33:58;;;;;;;8.10;3.33;;;3.40;99.90;;;;;;5055784;28;20211;-78
2021/04/26 01:36:44;;;;;;;5.70;2.27;;;3.30;99.90;;;;;;5040351;28;20199;-79
2021/04/26 01:39:29;;;;;;;7.10;2.60;;;3.30;99.90;;;;;;5052929;28;20321;-79
2021/04/26 01:42:16;;;;;;;8.33;2.50;;;3.30;99.90;;;;;;5058452;28;20228;-77
2021/04/26 01:45:03;;;;;;;9.17;2.67;;;3.30;99.90;;;;;;5054594;28;20221;-78
2021/04/26 01:47:53;;;;;;;5.87;2.60;;;3.20;99.90;;;;;;5058732;28;20289;-78
2021/04/26 01:50:39;;;;;;;4.63;2.30;;;3.20;99.90;;;;;;5059762;28;20224;-79
2021/04/26 01:53:25;;;;;;;7.37;2.40;;;3.10;99.90;;;;;;5053121;28;20310;-80
2021/04/26 01:56:12;;;;;;;7.70;3.20;;;3.10;99.90;;;;;;5055819;28;20207;-78
2021/04/26 01:58:58;;;;;;;7.57;2.47;;;3.00;99.90;;;;;;5045381;28;20564;-77
2021/04/26 02:01:43;;;;;;;6.63;2.60;;;3.00;99.90;;;;;;5058551;28;20209;-78
2021/04/26 02:04:31;;;;;;;6.37;2.67;;;3.00;99.90;;;;;;5050628;28;20756;-78
2021/04/26 02:07:17;;;;;;;4.03;2.20;;;3.00;99.90;;;;;;5054969;28;20222;-80
2021/04/26 02:10:04;;;;;;;5.93;2.43;;;2.90;99.90;;;;;;5058720;28;20229;-78
2021/04/26 02:12:50;;;;;;;6.23;2.60;;;2.90;99.90;;;;;;5051747;28;21016;-77
2021/04/26 02:15:36;;;;;;;6.80;2.87;;;2.80;99.90;;;;;;5058106;28;20255;-78
2021/04/26 02:18:21;;;;;;;7.87;2.70;;;2.80;99.90;;;;;;5056442;28;20243;-78
2021/04/26 02:21:06;;;;;;;13.47;2.83;;;2.80;99.90;;;;;;5050508;28;20269;-78
2021/04/26 02:23:53;;;;;;;4.27;2.37;;;2.80;99.90;;;;;;5051895;28;20675;-79
2021/04/26 02:26:38;;;;;;;7.50;2.67;;;2.80;99.90;;;;;;5057452;28;20708;-78
2021/04/26 02:29:23;;;;;;;7.77;2.33;;;2.70;99.90;;;;;;5047408;28;20271;-77
2021/04/26 02:32:13;;;;;;;5.80;2.83;;;2.70;99.90;;;;;;5057872;28;20262;-78
2021/04/26 02:35:01;;;;;;;4.93;2.40;;;2.70;99.90;;;;;;5045243;28;20216;-78
2021/04/26 02:37:53;;;;;;;7.20;2.60;;;2.70;99.90;;;;;;5052301;28;20671;-77
2021/04/26 02:40:40;;;;;;;5.13;2.40;;;2.70;99.90;;;;;;5057038;28;20224;-79
2021/04/26 02:43:26;;;;;;;8.73;2.40;;;2.70;99.90;;;;;;5050429;28;20196;-78
2021/04/26 02:46:13;;;;;;;6.50;2.80;;;2.60;99.90;;;;;;5054905;28;20265;-79
2021/04/26 02:48:59;;;;;;;5.37;2.40;;;2.60;99.90;;;;;;5053729;28;20297;-77
2021/04/26 02:51:44;;;;;;;6.27;2.00;;;2.50;99.90;;;;;;5046043;28;20255;-78
2021/04/26 02:54:29;;;;;;;6.60;2.60;;;2.60;99.90;;;;;;5042444;28;20212;-77
2021/04/26 02:57:15;;;;;;;6.57;2.67;;;2.60;99.90;;;;;;5050742;28;20211;-78
2021/04/26 03:00:01;;;;;;;7.30;2.50;;;2.50;99.90;;;;;;5049040;28;20247;-78
2021/04/26 03:02:47;;;;;;;8.53;3.10;;;2.50;99.90;;;;;;5047296;28;20575;-78
2021/04/26 03:05:32;;;;;;;7.93;2.40;;;2.40;99.90;;;;;;5058289;28;20230;-78
2021/04/26 03:08:17;;;;;;;7.13;2.43;;;2.40;99.90;;;;;;5057596;28;20232;-78
2021/04/26 03:11:05;;;;;;;9.50;2.57;;;2.40;99.90;;;;;;5058961;28;20347;-78
2021/04/26 03:13:52;;;;;;;9.43;2.83;;;2.40;99.90;;;;;;5069218;28;20219;-77
2021/04/26 03:16:37;;;;;;;10.83;3.23;;;2.30;99.90;;;;;;5069874;28;20202;-78
2021/04/26 03:19:22;;;;;;;7.63;3.43;;;2.30;99.90;;;;;;5068137;28;20240;-77
2021/04/26 03:22:08;;;;;;;10.33;3.20;;;2.30;99.90;;;;;;5063580;28;20203;-78
2021/04/26 03:24:53;;;;;;;9.83;3.50;;;2.30;99.90;;;;;;5057239;28;20241;-78
2021/04/26 03:27:40;;;;;;;9.33;3.87;;;2.30;99.90;;;;;;5044072;28;20240;-78
2021/04/26 03:30:27;;;;;;;9.50;3.70;;;2.30;99.90;;;;;;5057657;28;20292;-78
2021/04/26 03:33:13;;;;;;;6.60;3.03;;;2.30;99.90;;;;;;5053981;28;20273;-78
2021/04/26 03:35:59;;;;;;;8.83;3.37;;;2.30;99.90;;;;;;5038221;28;20581;-78
2021/04/26 03:38:44;;;;;;;6.43;2.73;;;2.30;99.90;;;;;;5055833;28;20252;-76
2021/04/26 03:41:29;;;;;;;11.83;3.47;;;2.40;99.90;;;;;;5056817;28;20633;-77
2021/04/26 03:44:17;;;;;;;14.17;3.80;;;2.40;99.90;;;;;;5046408;28;20707;-77
2021/04/26 03:47:05;;;;;;;10.70;3.57;;;2.40;99.90;;;;;;5056435;28;20198;-78
2021/04/26 03:49:50;;;;;;;7.67;3.43;;;2.30;99.90;;;;;;5056722;28;20262;-77
2021/04/26 03:52:35;;;;;;;5.47;2.70;;;2.40;99.90;;;;;;5038345;28;20301;-78
2021/04/26 03:55:22;;;;;;;9.53;2.97;;;2.30;99.90;;;;;;5052181;28;20247;-78
2021/04/26 03:58:07;;;;;;;6.10;2.80;;;2.40;99.90;;;;;;5054213;28;20214;-78
2021/04/26 04:00:52;;;;;;;8.13;2.90;;;2.40;99.90;;;;;;5041467;28;20220;-78
2021/04/26 04:03:39;;;;;;;8.10;3.20;;;2.30;99.90;;;;;;5037296;28;20670;-78
2021/04/26 04:06:24;;;;;;;7.87;3.17;;;2.30;99.90;;;;;;5048674;28;20210;-77
2021/04/26 04:09:10;;;;;;;6.40;2.73;;;2.30;99.90;;;;;;5056028;28;20242;-78
2021/04/26 04:11:54;;;;;;;6.33;2.40;;;2.30;99.90;;;;;;5051988;28;20232;-77
2021/04/26 04:14:39;;;;;;;8.87;3.13;;;2.30;99.90;;;;;;5053096;28;20219;-79
2021/04/26 04:17:25;;;;;;;9.63;2.70;;;2.20;99.90;;;;;;5053392;28;20218;-77
2021/04/26 04:20:12;;;;;;;6.67;2.60;;;2.20;99.90;;;;;;5048747;28;20649;-78
2021/04/26 04:22:57;;;;;;;10.00;2.93;;;2.20;99.90;;;;;;5048020;28;20842;-78
2021/04/26 04:25:42;;;;;;;7.10;3.20;;;2.10;99.90;;;;;;5053822;28;20239;-79
2021/04/26 04:28:26;;;;;;;7.00;3.37;;;2.10;99.90;;;;;;5053724;28;20258;-78
2021/04/26 04:31:11;;;;;;;6.37;3.30;;;2.10;99.90;;;;;;5050875;28;20206;-79
2021/04/26 04:33:56;;;;;;;7.90;3.93;;;2.10;99.90;;;;;;5047401;28;20220;-79
2021/04/26 04:36:42;;;;;;;7.73;3.43;;;2.10;99.90;;;;;;5050205;28;20260;-77
2021/04/26 04:39:27;;;;;;;13.67;3.83;;;2.00;99.90;;;;;;5056159;28;20281;-77
2021/04/26 04:42:12;;;;;;;18.70;4.60;;;2.10;99.90;;;;;;5054773;28;20215;-78
2021/04/26 04:44:56;;;;;;;11.97;3.90;;;2.10;99.90;;;;;;5052660;28;20258;-78
2021/04/26 04:47:41;;;;;;;17.60;3.70;;;2.10;99.90;;;;;;5054996;28;20698;-77
2021/04/26 04:50:26;;;;;;;13.97;3.80;;;2.10;99.90;;;;;;5054542;28;20227;-78
2021/04/26 04:53:12;;;;;;;12.80;3.80;;;2.10;99.90;;;;;;5053103;28;20212;-78
2021/04/26 04:55:56;;;;;;;17.03;3.97;;;2.10;99.90;;;;;;5054185;28;20577;-79
2021/04/26 04:58:41;;;;;;;13.20;3.63;;;2.20;99.90;;;;;;5055368;28;20267;-77
2021/04/26 05:01:26;;;;;;;12.67;4.00;;;2.20;99.90;;;;;;5046877;28;20208;-78
2021/04/26 05:04:11;;;;;;;16.27;4.07;;;2.20;99.90;;;;;;5051403;28;20560;-78
2021/04/26 05:06:55;;;;;;;15.43;4.83;;;2.30;99.90;;;;;;5051068;28;20271;-77
2021/04/26 05:09:41;;;;;;;9.43;4.10;;;2.30;99.90;;;;;;5049533;28;20320;-79
2021/04/26 05:12:26;;;;;;;7.90;3.00;;;2.30;99.90;;;;;;5051266;28;20228;-78
2021/04/26 05:15:13;;;;;;;13.47;3.70;;;2.30;99.90;;;;;;5048107;28;20205;-78
2021/04/26 05:17:58;;;;;;;9.93;3.50;;;2.40;99.90;;;;;;5054459;28;20707;-78
2021/04/26 05:20:43;;;;;;;7.27;3.47;;;2.40;99.90;;;;;;5052776;28;20237;-78
2021/04/26 05:23:30;;;;;;;11.17;4.43;;;2.40;99.90;;;;;;5053455;28;20205;-78
2021/04/26 05:26:15;;;;;;;13.20;4.43;;;2.40;99.90;;;;;;5046112;28;20207;-80
2021/04/26 05:29:00;;;;;;;9.40;4.23;;;2.30;99.90;;;;;;5057257;28;20629;-78
2021/04/26 05:31:45;;;;;;;10.97;4.17;;;2.50;99.90;;;;;;5051155;28;20202;-79
2021/04/26 05:34:30;;;;;;;15.03;4.17;;;2.60;99.90;;;;;;5047191;28;20207;-80
2021/04/26 05:37:15;;;;;;;12.70;4.23;;;2.60;99.90;;;;;;5059570;28;20208;-79
2021/04/26 05:40:00;;;;;;;13.77;4.33;;;2.70;99.90;;;;;;5057768;28;20370;-77
2021/04/26 05:42:46;;;;;;;11.80;3.87;;;2.80;99.90;;;;;;5047930;28;20282;-77
2021/04/26 05:45:30;;;;;;;10.03;3.93;;;2.80;99.90;;;;;;5057120;28;20705;-78
2021/04/26 05:48:16;;;;;;;13.47;4.50;;;2.90;99.90;;;;;;5066775;28;20315;-77
2021/04/26 05:51:01;;;;;;;13.10;4.50;;;2.90;99.90;;;;;;5049219;28;20732;-80
2021/04/26 05:53:46;;;;;;;9.53;4.47;;;2.90;99.90;;;;;;5061837;28;20265;-78
2021/04/26 05:56:31;;;;;;;9.23;3.83;;;3.10;99.90;;;;;;5047791;28;20210;-78
2021/04/26 05:59:16;;;;;;;7.63;3.47;;;3.10;99.90;;;;;;5057408;28;20304;-78
2021/04/26 06:02:01;;;;;;;7.00;3.50;;;3.20;99.90;;;;;;5048380;28;20251;-78
2021/04/26 06:04:45;;;;;;;9.50;3.50;;;3.30;99.90;;;;;;5042528;28;20201;-78
2021/04/26 06:07:30;;;;;;;10.13;3.60;;;3.40;99.90;;;;;;5051509;28;20578;-79
2021/04/26 06:10:15;;;;;;;10.97;3.40;;;3.40;99.90;;;;;;5043869;28;20247;-78
2021/04/26 06:12:59;;;;;;;7.27;3.23;;;3.40;99.90;;;;;;5055875;28;20223;-77
2021/04/26 06:15:45;;;;;;;7.50;3.07;;;3.50;99.90;;;;;;5045083;28;20704;-78
2021/04/26 06:18:30;;;;;;;7.83;3.43;;;3.60;99.90;;;;;;5057726;28;20208;-78
2021/04/26 06:21:15;;;;;;;10.77;4.33;;;3.70;99.90;;;;;;5059391;28;20258;-78
2021/04/26 06:24:00;;;;;;;14.70;3.53;;;3.80;99.90;;;;;;5055813;28;20279;-78
2021/04/26 06:26:45;;;;;;;13.73;3.27;;;3.70;99.90;;;;;;5054356;28;20208;-77
2021/04/26 06:29:30;;;;;;;12.17;3.40;;;3.90;99.90;;;;;;5050916;28;20252;-77
2021/04/26 06:32:15;;;;;;;11.63;3.97;;;4.00;99.90;;;;;;5068168;28;20241;-79
2021/04/26 06:35:00;;;;;;;12.97;3.63;;;4.10;99.90;;;;;;5045360;28;20209;-78
2021/04/26 06:37:45;;;;;;;11.93;3.70;;;4.20;99.90;;;;;;5048130;28;20311;-77
2021/04/26 06:40:30;;;;;;;6.50;3.10;;;4.30;99.90;;;;;;5052521;28;20225;-79
2021/04/26 06:43:15;;;;;;;9.50;3.57;;;4.40;99.90;;;;;;5058760;28;20285;-79
2021/04/26 06:46:00;;;;;;;7.93;2.87;;;4.40;99.90;;;;;;5037981;28;20234;-81
2021/04/26 06:48:46;;;;;;;12.80;4.03;;;4.50;99.90;;;;;;5051545;28;20226;-79
2021/04/26 06:51:31;;;;;;;8.50;3.20;;;4.60;99.90;;;;;;5047250;28;20249;-78
2021/04/26 06:54:15;;;;;;;8.23;3.57;;;4.70;99.90;;;;;;5053472;28;20235;-79
2021/04/26 06:57:00;;;;;;;6.23;2.80;;;4.80;99.90;;;;;;5050944;28;20257;-78
2021/04/26 06:59:45;;;;;;;8.80;3.17;;;4.80;99.90;;;;;;5059698;28;20327;-78
2021/04/26 07:02:30;;;;;;;10.90;3.50;;;4.90;99.90;;;;;;5055095;28;20229;-79
2021/04/26 07:05:16;;;;;;;6.97;3.13;;;5.20;99.90;;;;;;5058368;28;20230;-77
2021/04/26 07:08:01;;;;;;;8.30;3.00;;;5.10;99.90;;;;;;5049513;28;20219;-80
2021/04/26 07:10:48;;;;;;;7.73;3.00;;;5.20;99.90;;;;;;5043134;28;20599;-78
2021/04/26 07:13:33;;;;;;;8.27;2.90;;;5.30;99.90;;;;;;5053483;28;20692;-79
2021/04/26 07:16:18;;;;;;;6.23;2.63;;;5.30;99.90;;;;;;5058084;28;20211;-77
2021/04/26 07:19:03;;;;;;;6.97;2.77;;;5.40;99.90;;;;;;5062444;28;20234;-79
2021/04/26 07:21:50;;;;;;;9.13;3.17;;;5.50;99.90;;;;;;5049678;28;20274;-79
2021/04/26 07:24:38;;;;;;;3.77;2.60;;;5.60;99.90;;;;;;5055969;28;20253;-78
2021/04/26 07:27:23;;;;;;;6.80;2.80;;;5.70;99.90;;;;;;5058445;28;20292;-78
2021/04/26 07:30:09;;;;;;;9.00;3.00;;;5.80;99.90;;;;;;5056871;28;20277;-77
2021/04/26 07:32:54;;;;;;;8.57;3.13;;;5.90;99.90;;;;;;5060617;28;20210;-78
2021/04/26 07:35:39;;;;;;;5.43;2.17;;;6.00;99.90;;;;;;5041060;28;20797;-78
2021/04/26 07:38:25;;;;;;;6.50;2.70;;;6.10;99.90;;;;;;5055292;28;20203;-79
2021/04/26 07:41:10;;;;;;;7.23;2.33;;;6.20;99.90;;;;;;5059168;28;20265;-79
2021/04/26 07:43:55;;;;;;;7.00;2.70;;;6.30;99.90;;;;;;5050270;28;20572;-78
2021/04/26 07:46:39;;;;;;;7.53;3.30;;;6.40;99.90;;;;;;5055607;28;20234;-77
2021/04/26 07:49:25;;;;;;;11.43;3.37;;;6.50;99.90;;;;;;5059431;28;20231;-77
2021/04/26 07:52:10;;;;;;;6.23;3.27;;;6.60;99.90;;;;;;5055505;28;20206;-78
2021/04/26 07:54:55;;;;;;;7.23;3.53;;;6.70;99.90;;;;;;5056626;28;20202;-78
2021/04/26 07:57:40;;;;;;;7.13;3.20;;;6.80;99.90;;;;;;5052942;28;20210;-78
2021/04/26 08:00:26;;;;;;;7.03;2.70;;;6.90;99.90;;;;;;5056112;28;20218;-78
2021/04/26 08:03:11;;;;;;;7.07;2.67;;;7.00;99.90;;;;;;5057091;28;20246;-79
2021/04/26 08:05:55;;;;;;;7.67;2.83;;;7.10;99.90;;;;;;5055518;28;20206;-79
2021/04/26 08:08:40;;;;;;;10.83;3.30;;;7.30;99.90;;;;;;5056089;28;20250;-79
2021/04/26 08:11:26;;;;;;;6.67;2.60;;;7.40;99.90;;;;;;5042484;28;20242;-78
2021/04/26 08:14:11;;;;;;;5.87;2.53;;;7.50;99.90;;;;;;5058043;28;20240;-79
2021/04/26 08:16:56;;;;;;;4.70;2.37;;;7.70;99.90;;;;;;5050532;28;20198;-78
2021/04/26 08:19:40;;;;;;;7.50;2.30;;;7.80;99.90;;;;;;5049771;28;20254;-79
2021/04/26 08:22:25;;;;;;;9.60;3.10;;;7.90;99.90;;;;;;5055553;28;20217;-79
2021/04/26 08:25:11;;;;;;;7.57;2.80;;;8.00;99.90;;;;;;5055055;28;20200;-78
2021/04/26 08:27:57;;;;;;;9.33;3.20;;;8.20;99.90;;;;;;5049079;28;20206;-78
2021/04/26 08:30:42;;;;;;;4.47;2.20;;;8.30;99.90;;;;;;5056139;28;20591;-79
2021/04/26 08:33:26;;;;;;;4.93;2.30;;;8.40;99.90;;;;;;5045698;28;20246;-78
2021/04/26 08:36:11;;;;;;;5.57;2.70;;;8.60;99.90;;;;;;5047178;28;20261;-78
2021/04/26 08:38:57;;;;;;;9.23;2.50;;;8.70;99.90;;;;;;5041224;28;22016;-77
2021/04/26 08:41:42;;;;;;;6.70;3.10;;;8.80;99.90;;;;;;5056475;28;20579;-79
2021/04/26 08:44:28;;;;;;;5.30;2.70;;;9.00;99.90;;;;;;5042650;28;20206;-79
2021/04/26 08:47:13;;;;;;;11.93;2.90;;;9.10;99.90;;;;;;5052340;28;20206;-79
2021/04/26 08:49:58;;;;;;;6.67;2.33;;;9.20;99.90;;;;;;5047462;28;20262;-78
2021/04/26 08:52:43;;;;;;;6.43;2.70;;;9.40;99.90;;;;;;5054989;28;20241;-78
2021/04/26 08:55:29;;;;;;;7.07;2.57;;;9.50;99.90;;;;;;5057903;28;20202;-77
2021/04/26 08:58:14;;;;;;;4.73;2.47;;;9.70;99.90;;;;;;5053764;28;20207;-79
2021/04/26 09:00:59;;;;;;;5.27;2.50;;;9.80;99.90;;;;;;5068063;28;20226;-78
2021/04/26 09:03:46;;;;;;;7.43;2.67;;;10.00;99.90;;;;;;5054990;28;20566;-78
2021/04/26 09:06:49;;;;;;;4.03;2.37;;;10.10;99.90;;;;;;5054632;28;20219;-77
2021/04/26 09:09:42;;;;;;;7.13;2.70;;;10.30;99.90;;;;;;5053461;28;20325;-77
2021/04/26 09:12:28;;;;;;;5.43;3.53;;;10.40;99.90;;;;;;5054327;28;20254;-79
2021/04/26 09:15:13;;;;;;;4.43;2.30;;;10.50;99.90;;;;;;5050511;28;20215;-78
2021/04/26 09:17:59;;;;;;;5.13;2.73;;;10.70;99.90;;;;;;5054090;28;20203;-80
2021/04/26 09:20:43;;;;;;;4.53;2.83;;;10.90;99.90;;;;;;5055779;28;20319;-78
2021/04/26 09:23:28;;;;;;;7.73;2.90;;;11.10;99.90;;;;;;5055646;28;20258;-78
2021/04/26 09:26:27;;;;;;;3.40;2.23;;;11.30;99.90;;;;;;5040095;28;20199;-79
2021/04/26 09:29:14;;;;;;;5.70;2.57;;;11.80;99.90;;;;;;5047069;28;20373;-79
2021/04/26 09:32:09;;;;;;;4.97;2.60;;;12.50;99.90;;;;;;5054795;28;20257;-79
2021/04/26 09:34:55;;;;;;;5.13;2.20;;;13.30;99.50;;;;;;5051826;28;20254;-80
2021/04/26 09:37:40;;;;;;;10.07;2.97;;;14.30;97.10;;;;;;5055818;28;20211;-78
2021/04/26 09:40:25;;;;;;;5.53;2.90;;;15.30;93.70;;;;;;5055271;28;20776;-79
2021/04/26 09:43:21;;;;;;;5.77;3.03;;;16.40;85.70;;;;;;5055613;28;20203;-79
2021/04/26 09:46:06;;;;;;;7.70;3.33;;;17.50;80.70;;;;;;5054759;28;20225;-79
2021/04/26 09:48:51;;;;;;;4.97;2.60;;;18.40;71.40;;;;;;5055327;28;20239;-79
2021/04/26 09:51:37;;;;;;;5.97;2.53;;;19.50;70.60;;;;;;5057258;28;20221;-80
2021/04/26 09:54:35;;;;;;;4.97;2.87;;;20.50;72.70;;;;;;5054836;28;20268;-81
2021/04/26 09:57:20;;;;;;;6.30;2.73;;;21.50;63.50;;;;;;5044523;28;20215;-79
2021/04/26 10:00:07;;;;;;;4.60;2.90;;;22.40;57.00;;;;;;5056115;28;20270;-80
2021/04/26 10:02:52;;;;;;;4.87;2.67;;;23.20;59.00;;;;;;5063070;28;20217;-79
2021/04/26 10:05:37;;;;;;;5.23;3.00;;;24.00;53.80;;;;;;5063076;28;20238;-78
2021/04/26 10:08:23;;;;;;;3.80;2.70;;;24.80;51.60;;;;;;5049262;28;20260;-79
2021/04/26 10:11:09;;;;;;;9.23;3.10;;;25.60;52.00;;;;;;5052407;28;20593;-79
2021/04/26 10:14:01;;;;;;;5.10;2.72;;;26.20;48.40;;;;;;5061056;28;20262;-80
2021/04/26 10:16:53;;;;;;;4.75;2.50;;;26.90;51.20;;;;;;5062935;28;20759;-79
2021/04/26 10:19:44;;;;;;;3.15;2.10;;;27.60;46.80;;;;;;5061243;28;20225;-79
2021/04/26 10:22:34;;;;;;;3.88;2.65;;;28.20;45.60;;;;;;5068538;28;20246;-78
2021/04/26 10:25:36;;;;;;;4.25;2.50;;;28.80;46.00;;;;;;5072193;28;20251;-79
2021/04/26 10:28:32;;;;;;;6.50;2.90;;;29.30;44.90;;;;;;5067560;28;20195;-79
2021/04/26 10:31:18;;;;;;;6.07;2.75;;;29.90;44.00;;;;;;5081316;28;20227;-79
2021/04/26 10:34:07;;;;;;;5.38;2.92;;;30.50;40.40;;;;;;5057313;28;20239;-79
2021/04/26 10:36:54;;;;;;;4.15;3.00;;;31.00;40.20;;;;;;5045124;28;20218;-80
2021/04/26 10:39:39;;;;;;;5.00;2.85;;;31.40;36.80;;;;;;5056036;28;20223;-78
2021/04/26 10:42:31;;;;;;;4.82;2.80;;;31.80;37.00;;;;;;5059257;28;20877;-79
2021/04/26 10:45:20;;;;;;;4.63;2.40;;;32.20;36.80;;;;;;5050779;28;20222;-79
2021/04/26 10:48:12;;;;;;;4.70;2.83;;;32.50;37.50;;;;;;5057428;28;20230;-79
2021/04/26 10:50:57;;;;;;;4.38;2.47;;;32.70;38.60;;;;;;5065900;28;20265;-80
2021/04/26 10:53:46;;;;;;;4.60;2.65;;;33.00;37.30;;;;;;5047578;28;20291;-78
2021/04/26 10:56:32;;;;;;;4.53;2.75;;;33.30;35.70;;;;;;5057380;28;20677;-80
2021/04/26 10:59:25;;;;;;;3.58;2.42;;;33.60;36.80;;;;;;5061863;28;20280;-80
2021/04/26 11:02:30;;;;;;;7.00;2.60;;;34.00;34.40;;;;;;5060936;28;20278;-79
2021/04/26 11:05:19;;;;;;;4.47;2.20;;;34.30;36.80;;;;;;5054636;28;20206;-79
2021/04/26 11:08:10;;;;;;;5.88;2.85;;;34.50;33.60;;;;;;5042795;28;20243;-79
2021/04/26 11:11:00;;;;;;;4.63;2.60;;;34.70;33.30;;;;;;5059621;28;20310;-79
2021/04/26 11:13:53;;;;;;;6.25;2.90;;;35.00;33.70;;;;;;5058571;28;20218;-79
2021/04/26 11:16:52;;;;;;;4.38;2.58;;;35.20;32.60;;;;;;5066764;28;20230;-79
2021/04/26 11:20:11;;;;;;;4.35;2.90;;;35.40;31.90;;;;;;5055449;28;20218;-79
2021/04/26 11:22:57;;;;;;;5.95;2.75;;;35.50;33.70;;;;;;5060714;28;20621;-79
2021/04/26 11:25:42;;;;;;;7.22;3.33;;;35.70;32.30;;;;;;5059153;28;20245;-79
2021/04/26 11:28:27;;;;;;;6.00;3.20;;;35.70;31.70;;;;;;5060224;28;20617;-79
2021/04/26 11:31:11;;;;;;;4.00;2.60;;;35.80;32.50;;;;;;5051443;28;20246;-80
2021/04/26 11:33:57;;;;;;;7.07;3.25;;;35.80;31.80;;;;;;5053051;28;20346;-79
2021/04/26 11:37:10;;;;;;;2.90;2.28;;;35.80;31.20;;;;;;5053082;28;20291;-79
2021/04/26 11:39:55;;;;;;;4.68;2.90;;;35.90;33.90;;;;;;5060178;28;20265;-79
2021/04/26 11:42:40;;;;;;;3.67;2.40;;;36.00;31.90;;;;;;5063516;28;20221;-79
2021/04/26 11:45:25;;;;;;;4.65;2.65;;;36.10;33.00;;;;;;5050594;28;20214;-80
2021/04/26 11:48:20;;;;;;;3.30;2.63;;;36.30;34.00;;;;;;5060938;28;20226;-79
2021/04/26 11:51:06;;;;;;;3.17;2.40;;;36.50;33.10;;;;;;5061908;28;20234;-79
2021/04/26 11:53:51;;;;;;;4.15;2.90;;;36.60;32.10;;;;;;5060664;28;20590;-79
2021/04/26 11:56:35;;;;;;;3.65;2.60;;;36.80;30.80;;;;;;5058495;28;20211;-79
2021/04/26 11:59:20;;;;;;;3.42;2.63;;;36.90;32.50;;;;;;5047045;28;20266;-79
2021/04/26 12:02:05;;;;;;;7.38;2.90;;;37.10;30.40;;;;;;5060467;28;20211;-79
2021/04/26 12:04:50;;;;;;;3.47;2.50;;;37.20;31.90;;;;;;5059435;28;20227;-80
2021/04/26 12:07:36;;;;;;;4.82;2.80;;;37.40;32.90;;;;;;5051869;28;20229;-79
2021/04/26 12:10:23;;;;;;;5.72;3.33;;;37.60;31.90;;;;;;5060482;28;20261;-79
2021/04/26 12:13:09;;;;;;;6.97;3.15;;;37.80;30.90;;;;;;5060943;28;20233;-79
2021/04/26 12:15:55;;;;;;;3.85;2.83;;;38.00;30.30;;;;;;5052832;28;20215;-79
2021/04/26 12:18:39;;;;;;;5.70;2.92;;;38.20;31.30;;;;;;5061362;28;20210;-80
2021/04/26 12:21:25;;;;;;;6.32;2.83;;;38.30;29.70;;;;;;5056426;28;20306;-79
2021/04/26 12:24:12;;;;;;;2.75;2.03;;;38.50;30.20;;;;;;5055764;28;20246;-79
2021/04/26 12:26:56;;;;;;;5.18;3.50;;;38.60;31.10;;;;;;5060140;28;20202;-80
2021/04/26 12:29:41;;;;;;;5.68;3.38;;;38.60;30.20;;;;;;5049073;28;20313;-80
2021/04/26 12:32:31;;;;;;;7.15;3.22;;;38.60;29.90;;;;;;5057686;28;20269;-79
2021/04/26 12:35:17;;;;;;;5.32;3.33;;;38.70;29.80;;;;;;5044428;28;20700;-80
2021/04/26 12:38:02;;;;;;;3.05;2.60;;;38.70;30.30;;;;;;5053010;28;20728;-80
2021/04/26 12:40:50;;;;;;;7.63;3.00;;;38.60;29.70;;;;;;5056129;28;20242;-79
2021/04/26 12:43:37;;;;;;;4.05;2.58;;;38.70;29.80;;;;;;5055242;28;20218;-79
2021/04/26 12:46:22;;;;;;;6.50;3.20;;;38.60;28.70;;;;;;5051331;28;20222;-79
2021/04/26 12:49:17;;;;;;;7.57;3.53;;;38.70;29.60;;;;;;5058632;28;20281;-80
2021/04/26 12:52:12;;;;;;;5.97;3.00;;;38.60;29.70;;;;;;5056695;28;20258;-79
2021/04/26 12:55:03;;;;;;;6.20;3.30;;;38.50;30.10;;;;;;5055113;28;20218;-80
2021/04/26 12:57:48;;;;;;;4.85;2.80;;;38.30;30.70;;;;;;5051032;28;20299;-80
2021/04/26 13:00:39;;;;;;;3.97;2.60;;;38.20;29.80;;;;;;5038270;28;20261;-78
2021/04/26 13:03:29;;;;;;;7.55;3.10;;;38.10;30.40;;;;;;5053598;28;20210;-78
2021/04/26 13:06:16;;;;;;;4.90;2.97;;;38.00;29.60;;;;;;5063591;28;20584;-79
2021/04/26 13:09:05;;;;;;;3.42;2.80;;;37.80;30.30;;;;;;5058779;28;20210;-79
2021/04/26 13:11:52;;;;;;;6.68;3.00;;;37.80;29.50;;;;;;5045068;28;20214;-80
2021/04/26 13:14:37;;;;;;;4.65;2.47;;;37.70;30.00;;;;;;5059375;28;20282;-79
2021/04/26 13:17:33;;;;;;;7.72;2.50;;;37.70;30.90;;;;;;5061942;28;20696;-78
2021/04/26 13:20:20;;;;;;;6.63;2.45;;;37.60;31.80;;;;;;5058839;28;20238;-77
2021/04/26 13:23:17;;;;;;;5.13;2.70;;;37.60;29.70;;;;;;5047782;28;20210;-79
2021/04/26 13:26:02;;;;;;;4.13;2.40;;;37.60;30.40;;;;;;5050458;28;20203;-79
2021/04/26 13:28:48;;;;;;;5.53;3.33;;;37.60;30.70;;;;;;5057075;28;20213;-79
2021/04/26 13:31:34;;;;;;;6.97;3.50;;;37.70;30.80;;;;;;5062181;28;20294;-79
2021/04/26 13:34:19;;;;;;;6.88;3.10;;;37.60;29.50;;;;;;5052604;28;20249;-79
2021/04/26 13:37:05;;;;;;;7.47;2.92;;;37.60;29.70;;;;;;5058831;28;20218;-79
2021/04/26 13:39:50;;;;;;;4.43;2.78;;;37.70;30.90;;;;;;5064327;28;20234;-80
2021/04/26 13:42:35;;;;;;;6.45;2.85;;;37.60;29.60;;;;;;5059098;28;20214;-78
2021/04/26 13:45:21;;;;;;;5.60;2.97;;;37.60;30.30;;;;;;5060226;28;20238;-79
2021/04/26 13:48:07;;;;;;;7.85;2.65;;;37.60;30.10;;;;;;5067002;28;20210;-79
2021/04/26 13:50:52;;;;;;;4.43;2.65;;;37.50;29.70;;;;;;5066121;28;20221;-79
2021/04/26 13:53:37;;;;;;;5.68;3.10;;;37.50;31.20;;;;;;5060174;28;20275;-79
2021/04/26 13:56:22;;;;;;;5.22;2.90;;;37.50;30.20;;;;;;5063370;28;20723;-79
2021/04/26 13:59:07;;;;;;;8.00;3.17;;;37.50;29.10;;;;;;5062360;28;20233;-78
2021/04/26 14:01:52;;;;;;;6.28;3.33;;;37.50;29.90;;;;;;5064172;28;20234;-80
2021/04/26 14:04:37;;;;;;;5.65;3.00;;;37.40;29.60;;;;;;5072727;28;20292;-80
2021/04/26 14:07:22;;;;;;;5.88;2.70;;;37.30;29.20;;;;;;5065443;28;20209;-79
2021/04/26 14:10:07;;;;;;;4.20;2.72;;;37.10;30.00;;;;;;5059792;28;20234;-78
2021/04/26 14:12:53;;;;;;;6.97;2.95;;;37.00;30.60;;;;;;5053677;28;20234;-79
2021/04/26 14:15:38;;;;;;;6.00;3.13;;;36.80;29.70;;;;;;5049463;28;20206;-78
2021/04/26 14:18:23;;;;;;;4.82;2.78;;;36.70;29.40;;;;;;5056761;28;20202;-79
2021/04/26 14:21:09;;;;;;;3.90;2.80;;;36.60;30.30;;;;;;5055018;28;20601;-77
2021/04/26 14:23:53;;;;;;;7.88;3.13;;;36.50;29.70;;;;;;5049899;28;20294;-77
2021/04/26 14:26:38;;;;;;;8.45;3.45;;;36.30;29.60;;;;;;5056052;28;20222;-78
2021/04/26 14:29:22;;;;;;;6.80;3.30;;;36.20;29.60;;;;;;5062391;28;20741;-77
2021/04/26 14:32:07;;;;;;;4.97;2.58;;;36.10;29.40;;;;;;5056879;28;20341;-79
2021/04/26 14:34:52;;;;;;;5.05;3.25;;;35.90;30.60;;;;;;5047940;28;20254;-78